createdAt,value
2018-06-03T00:02:02.363Z,74
2018-06-03T00:07:32.671Z,74
2018-06-03T00:13:02.942Z,74
2018-06-03T00:18:32.330Z,74
2018-06-03T00:24:01.968Z,75
2018-06-03T00:29:31.909Z,75
2018-06-03T00:35:01.215Z,74
2018-06-03T00:40:30.508Z,75
2018-06-03T00:46:00.700Z,75
2018-06-03T00:51:31.010Z,75
2018-06-03T00:57:01.317Z,75
2018-06-03T01:02:31.592Z,75
2018-06-03T01:08:00.761Z,75
2018-06-03T01:13:30.075Z,75
2018-06-03T01:19:00.616Z,75
2018-06-03T01:24:29.562Z,75
2018-06-03T01:29:58.775Z,75
2018-06-03T01:35:28.063Z,76
2018-06-03T01:40:58.494Z,76
2018-06-03T01:46:27.542Z,76
2018-06-03T01:51:57.721Z,76
2018-06-03T01:57:26.953Z,76
2018-06-03T02:02:56.157Z,76
2018-06-03T02:08:26.394Z,76
2018-06-03T02:13:56.615Z,76
2018-06-03T02:19:26.830Z,76
2018-06-03T02:24:57.126Z,76
2018-06-03T02:30:27.316Z,76
2018-06-03T02:35:56.571Z,76
2018-06-03T02:41:26.734Z,76
2018-06-03T02:46:56.989Z,77
2018-06-03T02:52:26.173Z,77
2018-06-03T02:57:56.497Z,77
2018-06-03T03:03:26.608Z,77
2018-06-03T03:08:56.831Z,77
2018-06-03T03:14:26.030Z,77
2018-06-03T03:19:55.262Z,77
2018-06-03T03:25:24.469Z,77
2018-06-03T03:30:54.682Z,77
2018-06-03T03:36:24.875Z,77
2018-06-03T03:41:55.085Z,77
2018-06-03T03:47:25.338Z,77
2018-06-03T03:52:54.519Z,77
2018-06-03T03:58:23.722Z,77
2018-06-03T04:03:53.923Z,78
2018-06-03T04:09:24.190Z,78
2018-06-03T04:14:53.424Z,78
2018-06-03T04:20:23.548Z,78
2018-06-03T04:25:53.795Z,78
2018-06-03T04:31:22.908Z,78
2018-06-03T04:36:52.109Z,78
2018-06-03T04:42:22.592Z,78
2018-06-03T04:47:51.492Z,78
2018-06-03T04:53:21.792Z,78
2018-06-03T04:58:50.904Z,78
2018-06-03T05:04:20.091Z,78
2018-06-03T05:09:49.240Z,78
2018-06-03T05:09:49.692Z,78
2018-06-03T05:15:18.417Z,78
2018-06-03T05:20:48.609Z,78
2018-06-03T05:26:17.808Z,78
2018-06-03T05:31:47.017Z,78
2018-06-03T05:37:17.206Z,78
2018-06-03T05:42:46.433Z,78
2018-06-03T05:48:15.617Z,78
2018-06-03T05:53:45.801Z,78
2018-06-03T05:59:15.061Z,78
2018-06-03T06:04:44.203Z,78
2018-06-03T06:10:13.445Z,78
2018-06-03T06:15:42.665Z,77
2018-06-03T06:21:12.877Z,77
2018-06-03T06:26:42.154Z,77
2018-06-03T06:32:11.518Z,77
2018-06-03T06:37:40.658Z,77
2018-06-03T06:43:09.941Z,77
2018-06-03T06:48:40.212Z,77
2018-06-03T06:54:09.572Z,77
2018-06-03T06:59:44.773Z,76
2018-06-03T07:05:10.025Z,76
2018-06-03T07:10:39.354Z,76
2018-06-03T07:16:09.668Z,76
2018-06-03T07:21:40.197Z,76
2018-06-03T07:27:10.410Z,76
2018-06-03T07:32:40.705Z,76
2018-06-03T07:38:10.050Z,75
2018-06-03T07:43:39.468Z,75
2018-06-03T07:49:10.191Z,75
2018-06-03T07:54:40.206Z,75
2018-06-03T08:00:10.543Z,75
2018-06-03T08:05:39.935Z,74
2018-06-03T08:11:09.346Z,74
2018-06-03T08:16:38.745Z,74
2018-06-03T08:22:09.195Z,74
2018-06-03T08:27:39.563Z,74
2018-06-03T08:33:08.968Z,74
2018-06-03T08:38:38.378Z,74
2018-06-03T08:44:07.795Z,74
2018-06-03T08:49:38.247Z,74
2018-06-03T08:55:07.664Z,73
2018-06-03T09:00:37.090Z,73
2018-06-03T09:06:07.553Z,73
2018-06-03T09:11:37.019Z,73
2018-06-03T09:17:08.047Z,73
2018-06-03T09:22:37.934Z,73
2018-06-03T09:28:07.525Z,73
2018-06-03T09:33:37.835Z,73
2018-06-03T09:39:08.299Z,73
2018-06-03T09:44:37.746Z,73
2018-06-03T09:50:07.253Z,73
2018-06-03T09:55:37.746Z,72
2018-06-03T10:01:07.221Z,72
2018-06-03T10:06:36.686Z,72
2018-06-03T10:12:06.218Z,72
2018-06-03T10:17:36.764Z,71
2018-06-03T10:23:07.279Z,71
2018-06-03T10:28:36.842Z,71
2018-06-03T10:34:07.429Z,71
2018-06-03T10:39:36.930Z,71
2018-06-03T10:56:08.617Z,71
2018-06-03T11:01:39.227Z,71
2018-06-03T11:07:07.805Z,71
2018-06-03T11:12:37.329Z,71
2018-06-03T11:18:07.843Z,70
2018-06-03T11:23:38.303Z,70
2018-06-03T11:29:07.850Z,71
2018-06-03T11:34:37.372Z,71
2018-06-03T11:40:07.928Z,71
2018-06-03T11:45:37.422Z,71
2018-06-03T11:51:06.917Z,71
2018-06-03T11:56:37.416Z,71
2018-06-03T12:02:06.848Z,71
2018-06-03T12:07:37.347Z,71
2018-06-03T12:13:07.792Z,71
2018-06-03T12:24:08.818Z,71
2018-06-03T12:29:38.213Z,71
2018-06-03T12:35:08.717Z,71
2018-06-03T12:40:38.200Z,71
2018-06-03T12:46:07.613Z,71
2018-06-03T12:51:37.020Z,71
2018-06-03T12:57:06.572Z,71
2018-06-03T13:02:37.003Z,71
2018-06-03T13:08:06.598Z,71
2018-06-03T13:13:35.964Z,71
2018-06-03T13:19:05.498Z,71
2018-06-03T13:24:34.952Z,71
2018-06-03T13:30:04.406Z,71
2018-06-03T13:35:34.831Z,71
2018-06-03T13:41:05.328Z,71
2018-06-03T13:46:34.992Z,71
2018-06-03T13:52:04.357Z,71
2018-06-03T13:57:34.716Z,72
2018-06-03T14:03:05.144Z,71
2018-06-03T14:08:34.634Z,72
2018-06-03T14:14:05.057Z,72
2018-06-03T14:19:35.585Z,71
2018-06-03T14:25:05.952Z,72
2018-06-03T14:30:35.398Z,72
2018-06-03T14:36:05.877Z,72
2018-06-03T14:41:36.318Z,72
2018-06-03T14:47:06.759Z,71
2018-06-03T14:52:36.320Z,71
2018-06-03T14:58:06.715Z,71
2018-06-03T15:03:36.433Z,71
2018-06-03T15:09:05.820Z,71
2018-06-03T15:14:35.291Z,71
2018-06-03T15:20:05.845Z,71
2018-06-03T15:25:35.930Z,71
2018-06-03T15:31:05.911Z,71
2018-06-03T15:36:36.333Z,71
2018-06-03T15:42:05.849Z,71
2018-06-03T15:47:35.288Z,71
2018-06-03T15:53:05.891Z,71
2018-06-03T15:58:35.240Z,71
2018-06-03T16:04:04.711Z,71
2018-06-03T16:09:35.274Z,71
2018-06-03T16:15:05.819Z,71
2018-06-03T16:20:35.165Z,71
2018-06-03T16:26:05.784Z,71
2018-06-03T16:31:35.086Z,71
2018-06-03T16:37:04.505Z,71
2018-06-03T16:42:33.829Z,71
2018-06-03T16:48:03.256Z,72
2018-06-03T16:53:33.696Z,71
2018-06-03T16:59:03.114Z,72
2018-06-03T17:04:32.549Z,72
2018-06-03T17:10:02.013Z,72
2018-06-03T17:15:31.336Z,72
2018-06-03T17:21:00.662Z,72
2018-06-03T17:26:30.163Z,72
2018-06-03T17:32:00.435Z,72
2018-06-03T17:37:29.759Z,72
2018-06-03T17:42:59.098Z,72
2018-06-03T17:48:28.497Z,72
2018-06-03T17:53:57.791Z,72
2018-06-03T17:59:27.168Z,72
2018-06-03T18:04:56.518Z,73
2018-06-03T18:10:26.823Z,73
2018-06-03T18:15:56.071Z,73
2018-06-03T18:21:26.347Z,72
2018-06-03T18:26:56.713Z,72
2018-06-03T18:32:27.184Z,73
2018-06-03T18:37:56.314Z,73
2018-06-03T18:43:26.594Z,73
2018-06-03T18:48:56.852Z,73
2018-06-03T18:54:27.155Z,73
2018-06-03T18:59:56.483Z,73
2018-06-03T19:05:26.710Z,73
2018-06-03T19:10:57.095Z,73
2018-06-03T19:16:26.317Z,73
2018-06-03T19:21:56.743Z,73
2018-06-03T19:27:25.878Z,74
2018-06-03T19:32:56.106Z,74
2018-06-03T19:38:25.340Z,74
2018-06-03T19:43:55.656Z,74
2018-06-03T19:49:24.835Z,74
2018-06-03T19:54:54.186Z,74
2018-06-03T20:00:23.298Z,74
2018-06-03T20:05:52.571Z,74
2018-06-03T20:11:21.815Z,74
2018-06-03T20:16:51.136Z,74
2018-06-03T20:22:21.247Z,74
2018-06-03T20:27:50.487Z,74
2018-06-03T20:33:20.677Z,74
2018-06-03T20:38:49.925Z,74
2018-06-03T20:44:20.219Z,74
2018-06-03T20:49:50.398Z,74
2018-06-03T20:55:20.652Z,74
2018-06-03T21:00:49.803Z,74
2018-06-03T21:06:19.165Z,74
2018-06-03T21:11:48.248Z,74
2018-06-03T21:17:18.429Z,74
2018-06-03T21:22:48.616Z,74
2018-06-03T21:28:18.830Z,74
2018-06-03T21:33:49.223Z,74
2018-06-03T21:39:19.371Z,74
2018-06-03T21:44:48.420Z,74
2018-06-03T21:50:17.640Z,74
2018-06-03T21:55:46.853Z,74
2018-06-03T22:01:15.995Z,74
2018-06-03T22:06:45.202Z,74
2018-06-03T22:12:15.412Z,74
2018-06-03T22:17:44.646Z,74
2018-06-03T22:23:14.695Z,74
2018-06-03T22:28:44.861Z,74
2018-06-03T22:34:14.086Z,74
2018-06-03T22:39:44.161Z,74
2018-06-03T22:45:14.307Z,74
2018-06-03T22:50:44.496Z,74
2018-06-03T22:56:14.617Z,74
2018-06-03T23:01:43.784Z,74
2018-06-03T23:07:13.980Z,74
2018-06-03T23:12:44.120Z,74
2018-06-03T23:18:13.220Z,74
2018-06-03T23:23:43.324Z,74
2018-06-03T23:29:12.485Z,74
2018-06-03T23:34:42.634Z,74
2018-06-03T23:40:12.820Z,75
2018-06-03T23:45:41.829Z,75
2018-06-03T23:51:10.936Z,75
2018-06-03T23:56:39.978Z,75
